createdAt,value
2022-11-27T00:02:30.390Z,4.29
2022-11-27T00:05:34.713Z,4.29
2022-11-27T00:08:38.731Z,4.28
2022-11-27T00:11:43.991Z,4.36
2022-11-27T00:14:52.248Z,4.31
2022-11-27T00:17:58.956Z,4.27
2022-11-27T00:21:08.583Z,4.14
2022-11-27T00:24:13.011Z,4.20
2022-11-27T00:27:17.332Z,4.18
2022-11-27T00:30:21.625Z,4.13
2022-11-27T00:33:25.820Z,4.11
2022-11-27T00:36:31.288Z,4.13
2022-11-27T00:39:35.520Z,4.10
2022-11-27T00:42:39.733Z,4.09
2022-11-27T00:45:48.149Z,4.04
2022-11-27T00:48:52.237Z,4.05
2022-11-27T00:51:55.959Z,4.07
2022-11-27T00:54:59.848Z,4.07
2022-11-27T00:58:03.790Z,4.09
2022-11-27T01:01:08.228Z,4.04
2022-11-27T01:04:15.290Z,4.27
2022-11-27T01:07:19.058Z,4.28
2022-11-27T01:10:23.412Z,4.28
2022-11-27T01:13:31.886Z,4.27
2022-11-27T01:16:42.588Z,4.27
2022-11-27T01:19:47.262Z,4.22
2022-11-27T01:22:51.273Z,4.17
2022-11-27T01:25:55.101Z,4.18
2022-11-27T01:29:00.143Z,4.12
2022-11-27T01:32:04.117Z,4.05
2022-11-27T01:35:08.568Z,3.99
2022-11-27T01:38:12.636Z,3.91
2022-11-27T01:41:18.719Z,3.85
2022-11-27T01:44:26.002Z,3.82
2022-11-27T01:47:36.013Z,3.78
2022-11-27T01:50:40.339Z,3.76
2022-11-27T01:53:44.336Z,3.84
2022-11-27T01:56:51.968Z,3.77
2022-11-27T01:59:59.185Z,3.79
2022-11-27T02:03:03.085Z,3.77
2022-11-27T02:06:09.089Z,3.67
2022-11-27T02:09:13.014Z,3.67
2022-11-27T02:12:27.467Z,3.62
2022-11-27T02:15:55.672Z,3.65
2022-11-27T02:19:18.180Z,3.54
2022-11-27T02:22:45.063Z,3.60
2022-11-27T02:26:10.382Z,3.58
2022-11-27T02:29:17.489Z,3.44
2022-11-27T02:32:29.514Z,3.45
2022-11-27T02:35:41.176Z,3.45
2022-11-27T02:38:53.583Z,3.46
2022-11-27T02:42:08.027Z,3.56
2022-11-27T02:45:16.098Z,3.54
2022-11-27T02:48:25.046Z,3.48
2022-11-27T02:51:37.232Z,3.50
2022-11-27T02:54:43.277Z,3.44
2022-11-27T02:57:49.415Z,3.35
2022-11-27T03:00:55.714Z,3.34
2022-11-27T03:04:01.429Z,3.34
2022-11-27T03:07:12.801Z,3.33
2022-11-27T03:10:29.081Z,3.20
2022-11-27T03:13:38.023Z,3.19
2022-11-27T03:16:51.509Z,3.27
2022-11-27T03:20:02.492Z,3.19
2022-11-27T03:23:06.645Z,3.18
2022-11-27T03:26:11.196Z,3.21
2022-11-27T03:29:19.001Z,3.18
2022-11-27T03:32:23.109Z,3.16
2022-11-27T03:35:28.108Z,3.12
2022-11-27T03:38:32.094Z,3.09
2022-11-27T03:41:53.604Z,3.13
2022-11-27T03:45:16.585Z,3.12
2022-11-27T03:48:35.235Z,3.12
2022-11-27T03:51:46.156Z,3.09
2022-11-27T03:55:01.260Z,3.09
2022-11-27T03:58:30.201Z,3.12
2022-11-27T04:01:34.480Z,3.04
2022-11-27T04:04:38.958Z,3.03
2022-11-27T04:07:42.820Z,3.08
2022-11-27T04:10:47.285Z,2.99
2022-11-27T04:13:52.203Z,2.97
2022-11-27T04:16:56.149Z,2.99
2022-11-27T04:19:59.920Z,2.99
2022-11-27T04:23:03.928Z,3.06
2022-11-27T04:26:08.318Z,3.13
2022-11-27T04:29:12.283Z,3.12
2022-11-27T04:32:17.406Z,3.08
2022-11-27T04:35:21.279Z,3.05
2022-11-27T04:38:25.033Z,3.03
2022-11-27T04:41:29.726Z,3.03
2022-11-27T04:44:34.198Z,3.02
2022-11-27T04:47:38.022Z,3.03
2022-11-27T04:50:42.020Z,3.04
2022-11-27T04:53:46.152Z,3.07
2022-11-27T04:56:50.299Z,3.04
2022-11-27T04:59:54.179Z,2.99
2022-11-27T05:02:58.394Z,2.95
2022-11-27T05:06:02.509Z,2.98
2022-11-27T05:09:06.987Z,2.97
2022-11-27T05:12:11.182Z,2.95
2022-11-27T05:15:15.313Z,2.96
2022-11-27T05:18:19.611Z,2.94
2022-11-27T05:21:23.528Z,2.96
2022-11-27T05:24:28.760Z,2.96
2022-11-27T05:27:32.676Z,2.94
2022-11-27T05:30:36.801Z,2.94
2022-11-27T05:33:40.731Z,2.97
2022-11-27T05:36:44.533Z,2.97
2022-11-27T05:39:48.655Z,2.95
2022-11-27T05:42:52.528Z,2.91
2022-11-27T05:45:56.544Z,2.89
2022-11-27T05:49:00.458Z,2.87
2022-11-27T05:52:04.638Z,2.88
2022-11-27T05:55:09.111Z,2.89
2022-11-27T05:58:13.115Z,2.85
2022-11-27T06:01:19.227Z,2.91
2022-11-27T06:04:23.230Z,2.88
2022-11-27T06:07:27.337Z,2.82
2022-11-27T06:10:31.491Z,2.84
2022-11-27T06:13:36.139Z,2.91
2022-11-27T06:16:39.915Z,2.90
2022-11-27T06:19:43.671Z,2.83
2022-11-27T06:22:47.599Z,2.81
2022-11-27T06:25:51.757Z,2.86
2022-11-27T06:28:56.966Z,2.80
2022-11-27T06:32:00.630Z,2.89
2022-11-27T06:35:05.512Z,2.76
2022-11-27T06:38:09.632Z,2.76
2022-11-27T06:41:16.454Z,2.87
2022-11-27T06:44:20.689Z,2.89
2022-11-27T06:47:24.839Z,2.87
2022-11-27T06:50:28.783Z,2.85
2022-11-27T06:53:37.662Z,2.80
2022-11-27T06:56:41.865Z,2.84
2022-11-27T06:59:46.096Z,2.80
2022-11-27T07:02:53.945Z,2.87
2022-11-27T07:06:05.258Z,2.90
2022-11-27T07:09:10.081Z,2.85
2022-11-27T07:12:14.378Z,3.03
2022-11-27T07:15:18.620Z,3.07
2022-11-27T07:18:22.659Z,3.07
2022-11-27T07:21:27.615Z,3.14
2022-11-27T07:24:31.508Z,3.04
2022-11-27T07:27:35.831Z,3.26
2022-11-27T07:30:39.433Z,3.33
2022-11-27T07:33:43.468Z,3.32
2022-11-27T07:36:47.595Z,3.25
2022-11-27T07:40:02.693Z,3.20
2022-11-27T07:43:07.458Z,3.21
2022-11-27T07:46:16.977Z,3.26
2022-11-27T07:49:21.546Z,3.30
2022-11-27T07:52:26.139Z,3.44
2022-11-27T07:55:30.183Z,3.39
2022-11-27T07:58:34.606Z,3.44
2022-11-27T08:01:38.447Z,3.44
2022-11-27T08:04:43.093Z,3.41
2022-11-27T08:07:47.417Z,3.42
2022-11-27T08:10:51.540Z,3.44
2022-11-27T08:14:00.652Z,3.48
2022-11-27T08:17:04.858Z,3.53
2022-11-27T08:20:08.872Z,3.67
2022-11-27T08:23:12.960Z,3.70
2022-11-27T08:26:16.926Z,3.81
2022-11-27T08:29:21.178Z,4.02
2022-11-27T08:32:25.495Z,4.25
2022-11-27T08:35:29.507Z,4.59
2022-11-27T08:38:33.841Z,4.81
2022-11-27T08:41:38.272Z,4.81
2022-11-27T08:44:42.563Z,4.75
2022-11-27T08:47:46.687Z,4.89
2022-11-27T08:50:52.090Z,5.06
2022-11-27T08:53:56.164Z,5.10
2022-11-27T08:57:00.369Z,5.05
2022-11-27T09:00:05.449Z,5.08
2022-11-27T09:03:11.557Z,5.23
2022-11-27T09:06:18.860Z,5.33
2022-11-27T09:09:23.266Z,5.39
2022-11-27T09:12:28.793Z,5.39
2022-11-27T09:15:32.680Z,5.39
2022-11-27T09:18:37.195Z,5.45
2022-11-27T09:21:41.156Z,5.46
2022-11-27T09:24:45.102Z,5.43
2022-11-27T09:27:49.089Z,5.53
2022-11-27T09:30:57.199Z,5.62
2022-11-27T09:34:01.042Z,5.50
2022-11-27T09:37:05.391Z,5.47
2022-11-27T09:40:15.745Z,5.56
2022-11-27T09:43:28.974Z,5.55
2022-11-27T09:46:37.281Z,5.64
2022-11-27T09:49:51.781Z,5.76
2022-11-27T09:52:59.629Z,5.87
2022-11-27T09:56:06.853Z,5.94
2022-11-27T09:59:19.929Z,6.07
2022-11-27T10:02:32.452Z,6.18
2022-11-27T10:05:47.823Z,6.11
2022-11-27T10:09:01.092Z,6.24
2022-11-27T10:12:22.402Z,6.24
2022-11-27T10:15:51.722Z,6.30
2022-11-27T10:19:03.793Z,6.42
2022-11-27T10:22:19.687Z,6.52
2022-11-27T10:25:40.486Z,6.63
2022-11-27T10:29:11.317Z,6.59
2022-11-27T10:36:00.878Z,6.61
2022-11-27T10:39:12.843Z,6.68
2022-11-27T10:42:27.820Z,6.76
2022-11-27T10:46:24.583Z,6.79
2022-11-27T10:49:28.349Z,6.84
2022-11-27T10:52:33.436Z,6.94
2022-11-27T10:55:51.999Z,6.96
2022-11-27T10:58:58.023Z,7.17
2022-11-27T11:02:03.461Z,7.31
2022-11-27T11:05:37.717Z,7.39
2022-11-27T11:09:01.565Z,7.32
2022-11-27T11:12:24.251Z,7.35
2022-11-27T11:15:28.564Z,7.56
2022-11-27T11:18:35.620Z,7.50
2022-11-27T11:21:42.383Z,7.35
2022-11-27T11:24:49.107Z,7.29
2022-11-27T11:27:53.253Z,7.46
2022-11-27T11:31:19.152Z,7.77
2022-11-27T11:34:23.225Z,7.81
2022-11-27T11:37:30.462Z,7.85
2022-11-27T11:40:37.076Z,7.89
2022-11-27T11:43:41.868Z,7.92
2022-11-27T11:46:52.399Z,7.98
2022-11-27T11:49:57.338Z,7.98
2022-11-27T11:53:31.019Z,7.96
2022-11-27T11:56:42.453Z,8.03
2022-11-27T12:00:09.385Z,7.97
2022-11-27T12:03:18.396Z,7.90
2022-11-27T12:06:31.296Z,7.94
2022-11-27T12:09:35.128Z,7.97
2022-11-27T12:13:01.024Z,7.91
2022-11-27T12:16:31.420Z,7.95
2022-11-27T12:19:55.881Z,8.04
2022-11-27T12:23:24.627Z,7.95
2022-11-27T12:26:39.390Z,8.02
2022-11-27T12:30:05.457Z,8.01
2022-11-27T12:33:09.623Z,8.03
2022-11-27T12:36:28.703Z,8.02
2022-11-27T12:39:33.809Z,7.92
2022-11-27T12:42:50.339Z,7.90
2022-11-27T12:46:01.610Z,7.94
2022-11-27T12:49:11.369Z,7.82
2022-11-27T12:52:33.643Z,7.81
2022-11-27T12:55:40.917Z,7.88
2022-11-27T12:58:48.541Z,7.93
2022-11-27T13:02:02.515Z,7.82
2022-11-27T13:05:22.665Z,7.80
2022-11-27T13:08:48.337Z,7.86
2022-11-27T13:11:55.646Z,7.75
2022-11-27T13:15:16.590Z,7.79
2022-11-27T13:18:49.123Z,7.89
2022-11-27T13:21:55.054Z,7.91
2022-11-27T13:25:01.701Z,7.83
2022-11-27T13:28:07.040Z,7.76
2022-11-27T13:31:25.371Z,7.77
2022-11-27T13:34:32.520Z,7.76
2022-11-27T13:37:40.006Z,7.77
2022-11-27T13:40:47.463Z,7.78
2022-11-27T13:43:52.655Z,7.88
2022-11-27T13:47:04.349Z,7.93
2022-11-27T13:50:16.089Z,8.01
2022-11-27T13:53:31.092Z,8.03
2022-11-27T13:56:35.190Z,8.05
2022-11-27T13:59:39.643Z,8.11
2022-11-27T14:02:51.623Z,8.13
2022-11-27T14:05:57.531Z,8.11
2022-11-27T14:09:04.684Z,8.07
2022-11-27T14:12:25.042Z,8.02
2022-11-27T14:15:35.444Z,8.03
2022-11-27T14:18:39.771Z,8.23
2022-11-27T14:21:45.422Z,8.21
2022-11-27T14:24:55.846Z,8.16
2022-11-27T14:28:12.069Z,8.07
2022-11-27T14:31:25.760Z,7.95
2022-11-27T14:34:34.328Z,7.88
2022-11-27T14:37:38.489Z,7.79
2022-11-27T14:40:43.577Z,7.80
2022-11-27T14:43:47.596Z,7.72
2022-11-27T14:46:52.400Z,7.67
2022-11-27T14:49:56.991Z,7.62
2022-11-27T14:53:01.208Z,7.51
2022-11-27T14:56:05.912Z,7.44
2022-11-27T14:59:21.435Z,7.33
2022-11-27T15:02:29.339Z,7.32
2022-11-27T15:05:34.670Z,7.22
2022-11-27T15:08:38.925Z,7.28
2022-11-27T15:11:55.747Z,7.21
2022-11-27T15:15:06.586Z,7.27
2022-11-27T15:18:22.704Z,7.35
2022-11-27T15:21:27.220Z,7.40
2022-11-27T15:24:37.226Z,7.45
2022-11-27T15:27:46.872Z,7.39
2022-11-27T15:30:51.281Z,7.48
2022-11-27T15:33:57.347Z,7.52
2022-11-27T15:37:06.320Z,7.48
2022-11-27T15:40:42.888Z,7.46
2022-11-27T15:43:46.907Z,7.41
2022-11-27T15:46:52.218Z,7.49
2022-11-27T15:49:57.095Z,7.44
2022-11-27T15:53:01.307Z,7.41
2022-11-27T15:56:05.819Z,7.51
2022-11-27T15:59:10.565Z,7.40
2022-11-27T16:02:17.754Z,7.35
2022-11-27T16:05:22.054Z,7.32
2022-11-27T16:08:26.274Z,7.21
2022-11-27T16:11:31.925Z,7.15
2022-11-27T16:14:35.803Z,7.15
2022-11-27T16:17:39.939Z,7.09
2022-11-27T16:20:44.083Z,7.24
2022-11-27T16:23:48.092Z,7.28
2022-11-27T16:26:52.407Z,7.30
2022-11-27T16:29:56.337Z,7.20
2022-11-27T16:33:00.558Z,7.22
2022-11-27T16:36:06.770Z,7.25
2022-11-27T16:39:11.995Z,7.20
2022-11-27T16:42:16.155Z,7.11
2022-11-27T16:45:20.392Z,7.16
2022-11-27T16:48:24.303Z,7.19
2022-11-27T16:51:31.232Z,7.14
2022-11-27T16:54:35.115Z,7.17
2022-11-27T16:57:39.294Z,7.20
2022-11-27T17:00:43.351Z,7.10
2022-11-27T17:03:48.499Z,7.16
2022-11-27T17:06:52.720Z,7.08
2022-11-27T17:09:57.051Z,7.07
2022-11-27T17:13:01.329Z,7.06
2022-11-27T17:16:07.381Z,6.99
2022-11-27T17:19:13.045Z,6.86
2022-11-27T17:22:16.957Z,6.85
2022-11-27T17:25:21.090Z,6.82
2022-11-27T17:28:25.412Z,6.79
2022-11-27T17:31:33.529Z,6.73
2022-11-27T17:34:37.805Z,6.77
2022-11-27T17:37:43.549Z,6.76
2022-11-27T17:40:48.278Z,6.71
2022-11-27T17:43:52.393Z,6.62
2022-11-27T17:46:56.333Z,6.57
2022-11-27T17:50:00.333Z,6.61
2022-11-27T17:53:04.559Z,6.57
2022-11-27T17:56:11.713Z,6.51
2022-11-27T17:59:15.589Z,6.40
2022-11-27T18:02:19.738Z,6.36
2022-11-27T18:05:23.962Z,6.28
2022-11-27T18:08:28.240Z,6.18
2022-11-27T18:11:33.839Z,6.08
2022-11-27T18:14:37.964Z,6.02
2022-11-27T18:17:41.907Z,5.93
2022-11-27T18:20:46.767Z,5.90
2022-11-27T18:27:18.580Z,5.94
2022-11-27T18:30:22.760Z,5.98
2022-11-27T18:33:26.985Z,5.99
2022-11-27T18:36:31.106Z,5.93
2022-11-27T18:39:36.016Z,5.91
2022-11-27T18:42:39.878Z,5.88
2022-11-27T18:45:44.153Z,5.92
2022-11-27T18:48:49.441Z,5.90
2022-11-27T18:51:54.240Z,5.79
2022-11-27T18:54:58.104Z,5.75
2022-11-27T18:58:02.173Z,5.79
2022-11-27T19:01:11.389Z,5.69
2022-11-27T19:04:15.915Z,5.60
2022-11-27T19:07:20.249Z,5.60
2022-11-27T19:10:24.143Z,5.66
2022-11-27T19:13:28.383Z,5.56
2022-11-27T19:16:35.272Z,5.48
2022-11-27T19:19:55.519Z,5.44
2022-11-27T19:22:59.778Z,5.44
2022-11-27T19:26:10.096Z,5.56
2022-11-27T19:29:14.712Z,5.60
2022-11-27T19:32:18.797Z,5.59
2022-11-27T19:35:25.151Z,5.44
2022-11-27T19:38:29.183Z,5.42
2022-11-27T19:41:33.531Z,5.54
2022-11-27T19:44:37.707Z,5.57
2022-11-27T19:47:41.791Z,5.51
2022-11-27T19:50:46.626Z,5.51
2022-11-27T19:53:50.755Z,5.32
2022-11-27T19:56:54.614Z,5.40
2022-11-27T19:59:58.704Z,5.38
2022-11-27T20:03:03.822Z,5.30
2022-11-27T20:06:13.823Z,5.31
2022-11-27T20:09:18.138Z,5.26
2022-11-27T20:12:22.237Z,5.29
2022-11-27T20:15:25.963Z,5.42
2022-11-27T20:18:29.853Z,5.30
2022-11-27T20:21:34.575Z,5.38
2022-11-27T20:24:52.986Z,5.33
2022-11-27T20:28:03.276Z,5.27
2022-11-27T20:31:12.915Z,5.23
2022-11-27T20:34:21.162Z,5.30
2022-11-27T20:37:25.077Z,5.29
2022-11-27T20:40:29.104Z,5.24
2022-11-27T20:43:33.326Z,5.30
2022-11-27T20:46:37.545Z,5.29
2022-11-27T20:49:42.399Z,5.22
2022-11-27T20:52:47.034Z,5.41
2022-11-27T20:55:50.742Z,5.47
2022-11-27T20:58:55.134Z,5.44
2022-11-27T21:02:01.534Z,5.32
2022-11-27T21:05:06.522Z,5.37
2022-11-27T21:08:10.664Z,5.25
2022-11-27T21:11:26.843Z,5.26
2022-11-27T21:14:31.288Z,5.08
2022-11-27T21:17:35.713Z,5.13
2022-11-27T21:20:40.439Z,5.04
2022-11-27T21:23:44.518Z,5.08
2022-11-27T21:26:48.675Z,5.04
2022-11-27T21:29:52.753Z,4.97
2022-11-27T21:32:56.723Z,4.98
2022-11-27T21:36:01.311Z,5.05
2022-11-27T21:39:08.928Z,4.94
2022-11-27T21:42:13.072Z,4.93
2022-11-27T21:45:17.191Z,4.98
2022-11-27T21:48:23.696Z,4.96
2022-11-27T21:51:29.318Z,4.96
2022-11-27T21:54:34.615Z,5.05
2022-11-27T21:57:39.123Z,5.14
2022-11-27T22:00:43.469Z,5.08
2022-11-27T22:03:47.562Z,5.07
2022-11-27T22:06:51.761Z,4.99
2022-11-27T22:09:55.954Z,4.94
2022-11-27T22:13:00.085Z,4.99
2022-11-27T22:16:16.819Z,5.10
2022-11-27T22:19:20.862Z,5.04
2022-11-27T22:22:25.142Z,5.05
2022-11-27T22:25:29.111Z,5.03
2022-11-27T22:28:37.570Z,5.10
2022-11-27T22:31:41.759Z,5.06
2022-11-27T22:34:45.837Z,5.12
2022-11-27T22:37:53.069Z,4.99
2022-11-27T22:41:00.049Z,5.00
2022-11-27T22:44:09.021Z,4.96
2022-11-27T22:47:13.160Z,4.93
2022-11-27T22:50:17.341Z,4.91
2022-11-27T22:53:21.860Z,4.89
2022-11-27T22:56:26.042Z,4.95
2022-11-27T22:59:33.357Z,4.94
2022-11-27T23:02:38.943Z,4.98
2022-11-27T23:05:46.277Z,4.88
2022-11-27T23:08:51.379Z,4.81
2022-11-27T23:11:56.946Z,4.77
2022-11-27T23:15:00.870Z,4.79
2022-11-27T23:18:05.080Z,4.74
2022-11-27T23:21:13.012Z,4.62
2022-11-27T23:24:16.954Z,4.65
2022-11-27T23:27:21.016Z,4.65
2022-11-27T23:30:25.202Z,4.62
2022-11-27T23:33:29.359Z,4.60
2022-11-27T23:36:34.633Z,4.62
2022-11-27T23:39:38.797Z,4.61
2022-11-27T23:42:42.907Z,4.61
2022-11-27T23:45:46.980Z,4.52
2022-11-27T23:48:51.046Z,4.58
2022-11-27T23:51:57.818Z,4.54
2022-11-27T23:55:01.936Z,4.50
2022-11-27T23:58:05.976Z,4.51
